sensor_id;sensor_type;location;lat;lon;timestamp;P1;durP1;ratioP1;P2;durP2;ratioP2
48241;SDS011;34041;51.812;4.622;2024-01-30T00:01:52;13.30;;;10.30;;
48241;SDS011;34041;51.812;4.622;2024-01-30T00:04:53;18.92;;;12.25;;
48241;SDS011;34041;51.812;4.622;2024-01-30T00:07:53;14.53;;;11.33;;
48241;SDS011;34041;51.812;4.622;2024-01-30T00:10:53;18.60;;;10.53;;
48241;SDS011;34041;51.812;4.622;2024-01-30T00:13:53;13.73;;;9.37;;
48241;SDS011;34041;51.812;4.622;2024-01-30T00:16:55;11.48;;;9.05;;
48241;SDS011;34041;51.812;4.622;2024-01-30T00:19:55;13.73;;;9.63;;
48241;SDS011;34041;51.812;4.622;2024-01-30T00:22:55;15.73;;;9.93;;
48241;SDS011;34041;51.812;4.622;2024-01-30T00:25:55;17.53;;;10.73;;
48241;SDS011;34041;51.812;4.622;2024-01-30T00:28:55;13.23;;;9.73;;
48241;SDS011;34041;51.812;4.622;2024-01-30T00:31:56;13.40;;;10.52;;
48241;SDS011;34041;51.812;4.622;2024-01-30T00:34:56;14.15;;;10.27;;
48241;SDS011;34041;51.812;4.622;2024-01-30T00:37:56;13.52;;;9.10;;
48241;SDS011;34041;51.812;4.622;2024-01-30T00:40:57;13.82;;;10.68;;
48241;SDS011;34041;51.812;4.622;2024-01-30T00:43:57;12.27;;;9.67;;
48241;SDS011;34041;51.812;4.622;2024-01-30T00:46:57;12.77;;;10.30;;
48241;SDS011;34041;51.812;4.622;2024-01-30T00:49:58;17.23;;;9.55;;
48241;SDS011;34041;51.812;4.622;2024-01-30T00:52:58;12.20;;;9.50;;
48241;SDS011;34041;51.812;4.622;2024-01-30T00:55:58;11.13;;;9.27;;
48241;SDS011;34041;51.812;4.622;2024-01-30T00:58:58;12.95;;;8.57;;
48241;SDS011;34041;51.812;4.622;2024-01-30T01:01:59;13.70;;;9.05;;
48241;SDS011;34041;51.812;4.622;2024-01-30T01:04:59;12.43;;;9.18;;
48241;SDS011;34041;51.812;4.622;2024-01-30T01:07:59;11.50;;;8.73;;
48241;SDS011;34041;51.812;4.622;2024-01-30T01:11:00;13.10;;;8.40;;
48241;SDS011;34041;51.812;4.622;2024-01-30T01:14:00;15.77;;;10.13;;
48241;SDS011;34041;51.812;4.622;2024-01-30T01:17:00;14.57;;;8.43;;
48241;SDS011;34041;51.812;4.622;2024-01-30T01:20:00;11.07;;;8.73;;
48241;SDS011;34041;51.812;4.622;2024-01-30T01:23:00;14.27;;;10.10;;
48241;SDS011;34041;51.812;4.622;2024-01-30T01:26:01;13.80;;;8.67;;
48241;SDS011;34041;51.812;4.622;2024-01-30T01:29:01;14.63;;;10.25;;
48241;SDS011;34041;51.812;4.622;2024-01-30T01:32:01;10.13;;;8.63;;
48241;SDS011;34041;51.812;4.622;2024-01-30T01:35:02;10.02;;;8.52;;
48241;SDS011;34041;51.812;4.622;2024-01-30T01:38:02;13.40;;;9.45;;
48241;SDS011;34041;51.812;4.622;2024-01-30T01:41:03;12.32;;;8.30;;
48241;SDS011;34041;51.812;4.622;2024-01-30T01:44:03;12.80;;;8.93;;
48241;SDS011;34041;51.812;4.622;2024-01-30T01:47:03;11.05;;;9.25;;
48241;SDS011;34041;51.812;4.622;2024-01-30T01:50:04;13.27;;;8.48;;
48241;SDS011;34041;51.812;4.622;2024-01-30T01:53:05;10.85;;;8.95;;
48241;SDS011;34041;51.812;4.622;2024-01-30T01:56:07;11.05;;;8.63;;
48241;SDS011;34041;51.812;4.622;2024-01-30T01:59:08;13.45;;;8.75;;
48241;SDS011;34041;51.812;4.622;2024-01-30T02:02:09;12.63;;;8.43;;
48241;SDS011;34041;51.812;4.622;2024-01-30T02:05:11;16.27;;;9.52;;
48241;SDS011;34041;51.812;4.622;2024-01-30T02:08:11;13.48;;;9.27;;
48241;SDS011;34041;51.812;4.622;2024-01-30T02:11:12;10.90;;;8.18;;
48241;SDS011;34041;51.812;4.622;2024-01-30T02:14:13;11.60;;;8.48;;
48241;SDS011;34041;51.812;4.622;2024-01-30T02:17:13;11.30;;;9.00;;
48241;SDS011;34041;51.812;4.622;2024-01-30T02:20:13;13.43;;;8.90;;
48241;SDS011;34041;51.812;4.622;2024-01-30T02:23:15;13.15;;;10.00;;
48241;SDS011;34041;51.812;4.622;2024-01-30T02:26:15;14.55;;;10.27;;
48241;SDS011;34041;51.812;4.622;2024-01-30T02:29:16;12.00;;;9.30;;
48241;SDS011;34041;51.812;4.622;2024-01-30T02:32:16;13.97;;;9.97;;
48241;SDS011;34041;51.812;4.622;2024-01-30T02:35:16;10.23;;;8.93;;
48241;SDS011;34041;51.812;4.622;2024-01-30T02:38:16;13.57;;;10.00;;
48241;SDS011;34041;51.812;4.622;2024-01-30T02:41:17;12.07;;;9.50;;
48241;SDS011;34041;51.812;4.622;2024-01-30T02:44:17;13.83;;;9.57;;
48241;SDS011;34041;51.812;4.622;2024-01-30T02:47:17;12.95;;;9.13;;
48241;SDS011;34041;51.812;4.622;2024-01-30T02:50:17;11.85;;;8.32;;
48241;SDS011;34041;51.812;4.622;2024-01-30T02:53:18;13.67;;;9.10;;
48241;SDS011;34041;51.812;4.622;2024-01-30T02:56:18;17.38;;;9.60;;
48241;SDS011;34041;51.812;4.622;2024-01-30T02:59:18;11.47;;;8.90;;
48241;SDS011;34041;51.812;4.622;2024-01-30T03:02:18;10.37;;;8.67;;
48241;SDS011;34041;51.812;4.622;2024-01-30T03:05:19;19.73;;;10.10;;
48241;SDS011;34041;51.812;4.622;2024-01-30T03:08:19;13.45;;;8.63;;
48241;SDS011;34041;51.812;4.622;2024-01-30T03:11:19;12.20;;;9.00;;
48241;SDS011;34041;51.812;4.622;2024-01-30T03:14:19;15.57;;;8.75;;
48241;SDS011;34041;51.812;4.622;2024-01-30T03:17:20;14.75;;;10.05;;
48241;SDS011;34041;51.812;4.622;2024-01-30T03:20:20;16.77;;;10.32;;
48241;SDS011;34041;51.812;4.622;2024-01-30T03:23:20;14.85;;;9.93;;
48241;SDS011;34041;51.812;4.622;2024-01-30T03:26:21;14.68;;;9.40;;
48241;SDS011;34041;51.812;4.622;2024-01-30T03:29:21;14.10;;;8.60;;
48241;SDS011;34041;51.812;4.622;2024-01-30T03:32:21;12.05;;;9.10;;
48241;SDS011;34041;51.812;4.622;2024-01-30T03:35:22;12.43;;;9.27;;
48241;SDS011;34041;51.812;4.622;2024-01-30T03:38:22;13.93;;;9.33;;
48241;SDS011;34041;51.812;4.622;2024-01-30T03:41:22;9.17;;;8.03;;
48241;SDS011;34041;51.812;4.622;2024-01-30T03:44:22;14.20;;;9.80;;
48241;SDS011;34041;51.812;4.622;2024-01-30T03:47:22;14.13;;;9.37;;
48241;SDS011;34041;51.812;4.622;2024-01-30T03:50:23;13.85;;;9.55;;
48241;SDS011;34041;51.812;4.622;2024-01-30T03:53:23;11.50;;;9.02;;
48241;SDS011;34041;51.812;4.622;2024-01-30T03:56:23;12.48;;;8.32;;
48241;SDS011;34041;51.812;4.622;2024-01-30T03:59:25;14.15;;;8.65;;
48241;SDS011;34041;51.812;4.622;2024-01-30T04:02:26;13.73;;;9.60;;
48241;SDS011;34041;51.812;4.622;2024-01-30T04:05:26;13.67;;;8.77;;
48241;SDS011;34041;51.812;4.622;2024-01-30T04:08:26;13.82;;;9.35;;
48241;SDS011;34041;51.812;4.622;2024-01-30T04:11:26;10.57;;;8.63;;
48241;SDS011;34041;51.812;4.622;2024-01-30T04:14:27;17.10;;;9.37;;
48241;SDS011;34041;51.812;4.622;2024-01-30T04:17:27;12.07;;;8.57;;
48241;SDS011;34041;51.812;4.622;2024-01-30T04:20:29;13.70;;;9.00;;
48241;SDS011;34041;51.812;4.622;2024-01-30T04:23:29;12.88;;;8.73;;
48241;SDS011;34041;51.812;4.622;2024-01-30T04:26:29;14.23;;;8.53;;
48241;SDS011;34041;51.812;4.622;2024-01-30T04:29:29;13.02;;;9.07;;
48241;SDS011;34041;51.812;4.622;2024-01-30T04:32:30;11.07;;;8.87;;
48241;SDS011;34041;51.812;4.622;2024-01-30T04:35:30;15.73;;;9.60;;
48241;SDS011;34041;51.812;4.622;2024-01-30T04:38:31;15.20;;;9.17;;
48241;SDS011;34041;51.812;4.622;2024-01-30T04:41:31;16.52;;;9.82;;
48241;SDS011;34041;51.812;4.622;2024-01-30T04:44:32;12.80;;;9.18;;
48241;SDS011;34041;51.812;4.622;2024-01-30T04:47:32;15.15;;;8.88;;
48241;SDS011;34041;51.812;4.622;2024-01-30T04:50:32;10.70;;;8.13;;
48241;SDS011;34041;51.812;4.622;2024-01-30T04:53:33;9.73;;;8.35;;
48241;SDS011;34041;51.812;4.622;2024-01-30T04:56:33;11.00;;;8.57;;
48241;SDS011;34041;51.812;4.622;2024-01-30T04:59:34;13.48;;;9.15;;
48241;SDS011;34041;51.812;4.622;2024-01-30T05:02:34;12.55;;;8.13;;
48241;SDS011;34041;51.812;4.622;2024-01-30T05:05:34;10.73;;;8.60;;
48241;SDS011;34041;51.812;4.622;2024-01-30T05:08:35;12.37;;;8.47;;
48241;SDS011;34041;51.812;4.622;2024-01-30T05:11:39;11.32;;;9.80;;
48241;SDS011;34041;51.812;4.622;2024-01-30T05:14:39;9.82;;;8.23;;
48241;SDS011;34041;51.812;4.622;2024-01-30T05:17:39;9.47;;;8.13;;
48241;SDS011;34041;51.812;4.622;2024-01-30T05:20:39;10.40;;;8.77;;
48241;SDS011;34041;51.812;4.622;2024-01-30T05:23:40;12.00;;;7.82;;
48241;SDS011;34041;51.812;4.622;2024-01-30T05:26:41;11.35;;;8.18;;
48241;SDS011;34041;51.812;4.622;2024-01-30T05:29:42;9.70;;;8.52;;
48241;SDS011;34041;51.812;4.622;2024-01-30T05:32:42;15.80;;;9.87;;
48241;SDS011;34041;51.812;4.622;2024-01-30T05:35:43;12.98;;;9.60;;
48241;SDS011;34041;51.812;4.622;2024-01-30T05:38:43;13.25;;;8.80;;
48241;SDS011;34041;51.812;4.622;2024-01-30T05:41:43;11.37;;;8.80;;
48241;SDS011;34041;51.812;4.622;2024-01-30T05:44:44;13.00;;;8.23;;
48241;SDS011;34041;51.812;4.622;2024-01-30T05:47:44;14.40;;;9.57;;
48241;SDS011;34041;51.812;4.622;2024-01-30T05:50:44;8.87;;;7.77;;
48241;SDS011;34041;51.812;4.622;2024-01-30T05:53:45;13.50;;;9.27;;
48241;SDS011;34041;51.812;4.622;2024-01-30T05:56:45;11.07;;;8.20;;
48241;SDS011;34041;51.812;4.622;2024-01-30T05:59:45;12.20;;;8.80;;
48241;SDS011;34041;51.812;4.622;2024-01-30T06:02:47;15.57;;;9.70;;
48241;SDS011;34041;51.812;4.622;2024-01-30T06:05:47;12.48;;;7.93;;
48241;SDS011;34041;51.812;4.622;2024-01-30T06:08:48;11.63;;;8.67;;
48241;SDS011;34041;51.812;4.622;2024-01-30T06:11:48;11.00;;;8.45;;
48241;SDS011;34041;51.812;4.622;2024-01-30T06:14:48;13.57;;;9.87;;
48241;SDS011;34041;51.812;4.622;2024-01-30T06:17:48;12.03;;;8.80;;
48241;SDS011;34041;51.812;4.622;2024-01-30T06:20:49;17.20;;;10.10;;
48241;SDS011;34041;51.812;4.622;2024-01-30T06:23:49;11.80;;;9.38;;
48241;SDS011;34041;51.812;4.622;2024-01-30T06:26:49;14.00;;;8.88;;
48241;SDS011;34041;51.812;4.622;2024-01-30T06:29:49;12.53;;;7.93;;
48241;SDS011;34041;51.812;4.622;2024-01-30T06:32:50;16.55;;;9.13;;
48241;SDS011;34041;51.812;4.622;2024-01-30T06:35:50;13.73;;;8.93;;
48241;SDS011;34041;51.812;4.622;2024-01-30T06:38:50;14.57;;;9.57;;
48241;SDS011;34041;51.812;4.622;2024-01-30T06:41:51;17.98;;;9.23;;
48241;SDS011;34041;51.812;4.622;2024-01-30T06:44:51;15.37;;;9.60;;
48241;SDS011;34041;51.812;4.622;2024-01-30T06:47:51;14.83;;;9.50;;
48241;SDS011;34041;51.812;4.622;2024-01-30T06:50:53;12.40;;;8.57;;
48241;SDS011;34041;51.812;4.622;2024-01-30T06:53:53;14.20;;;9.32;;
48241;SDS011;34041;51.812;4.622;2024-01-30T06:56:54;11.68;;;8.13;;
48241;SDS011;34041;51.812;4.622;2024-01-30T06:59:54;15.73;;;9.85;;
48241;SDS011;34041;51.812;4.622;2024-01-30T07:02:54;13.00;;;8.95;;
48241;SDS011;34041;51.812;4.622;2024-01-30T07:05:54;11.67;;;8.50;;
48241;SDS011;34041;51.812;4.622;2024-01-30T07:08:55;16.60;;;8.25;;
48241;SDS011;34041;51.812;4.622;2024-01-30T07:11:55;12.80;;;9.33;;
48241;SDS011;34041;51.812;4.622;2024-01-30T07:14:58;12.45;;;9.10;;
48241;SDS011;34041;51.812;4.622;2024-01-30T07:17:59;12.27;;;7.65;;
48241;SDS011;34041;51.812;4.622;2024-01-30T07:20:59;12.03;;;8.63;;
48241;SDS011;34041;51.812;4.622;2024-01-30T07:24:00;11.00;;;8.77;;
48241;SDS011;34041;51.812;4.622;2024-01-30T07:27:00;13.73;;;7.97;;
48241;SDS011;34041;51.812;4.622;2024-01-30T07:30:00;10.70;;;7.20;;
48241;SDS011;34041;51.812;4.622;2024-01-30T07:33:00;13.50;;;8.90;;
48241;SDS011;34041;51.812;4.622;2024-01-30T07:36:01;12.93;;;8.35;;
48241;SDS011;34041;51.812;4.622;2024-01-30T07:39:01;11.32;;;7.38;;
48241;SDS011;34041;51.812;4.622;2024-01-30T07:42:01;14.70;;;8.40;;
48241;SDS011;34041;51.812;4.622;2024-01-30T07:45:01;16.00;;;9.98;;
48241;SDS011;34041;51.812;4.622;2024-01-30T07:48:02;13.30;;;8.57;;
48241;SDS011;34041;51.812;4.622;2024-01-30T07:51:02;15.25;;;7.70;;
48241;SDS011;34041;51.812;4.622;2024-01-30T07:54:04;10.43;;;7.70;;
48241;SDS011;34041;51.812;4.622;2024-01-30T07:57:04;13.25;;;7.70;;
48241;SDS011;34041;51.812;4.622;2024-01-30T08:00:05;12.13;;;7.10;;
48241;SDS011;34041;51.812;4.622;2024-01-30T08:03:07;11.45;;;7.47;;
48241;SDS011;34041;51.812;4.622;2024-01-30T08:06:07;17.10;;;8.38;;
48241;SDS011;34041;51.812;4.622;2024-01-30T08:09:07;8.63;;;7.32;;
48241;SDS011;34041;51.812;4.622;2024-01-30T08:12:08;13.18;;;7.75;;
48241;SDS011;34041;51.812;4.622;2024-01-30T08:15:08;11.73;;;7.50;;
48241;SDS011;34041;51.812;4.622;2024-01-30T08:18:08;11.05;;;7.93;;
48241;SDS011;34041;51.812;4.622;2024-01-30T08:21:09;15.70;;;8.95;;
48241;SDS011;34041;51.812;4.622;2024-01-30T08:24:09;12.20;;;8.30;;
48241;SDS011;34041;51.812;4.622;2024-01-30T08:27:09;13.15;;;8.00;;
48241;SDS011;34041;51.812;4.622;2024-01-30T08:30:10;12.90;;;8.60;;
48241;SDS011;34041;51.812;4.622;2024-01-30T08:33:10;14.15;;;8.60;;
48241;SDS011;34041;51.812;4.622;2024-01-30T08:36:10;14.90;;;7.37;;
48241;SDS011;34041;51.812;4.622;2024-01-30T08:39:10;10.87;;;7.93;;
48241;SDS011;34041;51.812;4.622;2024-01-30T08:42:11;9.50;;;7.18;;
48241;SDS011;34041;51.812;4.622;2024-01-30T08:45:11;16.85;;;10.18;;
48241;SDS011;34041;51.812;4.622;2024-01-30T08:48:11;18.10;;;8.77;;
48241;SDS011;34041;51.812;4.622;2024-01-30T08:51:12;11.30;;;7.25;;
48241;SDS011;34041;51.812;4.622;2024-01-30T08:54:12;13.77;;;7.43;;
48241;SDS011;34041;51.812;4.622;2024-01-30T08:57:12;12.63;;;7.73;;
48241;SDS011;34041;51.812;4.622;2024-01-30T09:00:12;13.15;;;7.22;;
48241;SDS011;34041;51.812;4.622;2024-01-30T09:03:13;11.48;;;8.15;;
48241;SDS011;34041;51.812;4.622;2024-01-30T09:06:13;18.53;;;8.30;;
48241;SDS011;34041;51.812;4.622;2024-01-30T09:09:13;10.75;;;7.30;;
48241;SDS011;34041;51.812;4.622;2024-01-30T09:12:14;9.93;;;7.10;;
48241;SDS011;34041;51.812;4.622;2024-01-30T09:15:15;13.32;;;7.75;;
48241;SDS011;34041;51.812;4.622;2024-01-30T09:18:15;13.85;;;8.02;;
48241;SDS011;34041;51.812;4.622;2024-01-30T09:21:15;12.07;;;7.70;;
48241;SDS011;34041;51.812;4.622;2024-01-30T09:24:15;13.50;;;7.57;;
48241;SDS011;34041;51.812;4.622;2024-01-30T09:27:16;12.27;;;7.30;;
48241;SDS011;34041;51.812;4.622;2024-01-30T09:30:16;14.53;;;7.50;;
48241;SDS011;34041;51.812;4.622;2024-01-30T09:33:16;11.10;;;6.68;;
48241;SDS011;34041;51.812;4.622;2024-01-30T09:36:17;12.83;;;8.10;;
48241;SDS011;34041;51.812;4.622;2024-01-30T09:39:19;11.68;;;7.60;;
48241;SDS011;34041;51.812;4.622;2024-01-30T09:45:24;13.13;;;8.00;;
48241;SDS011;34041;51.812;4.622;2024-01-30T09:48:25;9.90;;;7.05;;
48241;SDS011;34041;51.812;4.622;2024-01-30T09:51:25;13.07;;;7.22;;
48241;SDS011;34041;51.812;4.622;2024-01-30T09:54:28;9.95;;;7.47;;
48241;SDS011;34041;51.812;4.622;2024-01-30T09:57:29;12.68;;;8.07;;
48241;SDS011;34041;51.812;4.622;2024-01-30T10:00:29;11.38;;;7.03;;
48241;SDS011;34041;51.812;4.622;2024-01-30T10:03:29;9.60;;;7.73;;
48241;SDS011;34041;51.812;4.622;2024-01-30T10:06:29;15.13;;;7.67;;
48241;SDS011;34041;51.812;4.622;2024-01-30T10:09:32;12.10;;;7.78;;
48241;SDS011;34041;51.812;4.622;2024-01-30T10:12:34;9.15;;;6.57;;
48241;SDS011;34041;51.812;4.622;2024-01-30T10:15:34;11.95;;;6.63;;
48241;SDS011;34041;51.812;4.622;2024-01-30T10:18:38;12.10;;;6.25;;
48241;SDS011;34041;51.812;4.622;2024-01-30T10:21:41;9.30;;;5.90;;
48241;SDS011;34041;51.812;4.622;2024-01-30T10:24:41;14.50;;;6.87;;
48241;SDS011;34041;51.812;4.622;2024-01-30T10:27:42;11.00;;;6.47;;
48241;SDS011;34041;51.812;4.622;2024-01-30T10:30:42;8.27;;;6.10;;
48241;SDS011;34041;51.812;4.622;2024-01-30T10:33:42;15.57;;;6.83;;
48241;SDS011;34041;51.812;4.622;2024-01-30T10:36:44;11.93;;;6.43;;
48241;SDS011;34041;51.812;4.622;2024-01-30T10:39:46;12.75;;;6.03;;
48241;SDS011;34041;51.812;4.622;2024-01-30T10:42:46;7.57;;;3.67;;
48241;SDS011;34041;51.812;4.622;2024-01-30T10:45:47;4.43;;;1.85;;
48241;SDS011;34041;51.812;4.622;2024-01-30T10:48:50;6.75;;;1.48;;
48241;SDS011;34041;51.812;4.622;2024-01-30T10:51:50;3.35;;;1.60;;
48241;SDS011;34041;51.812;4.622;2024-01-30T10:54:51;4.45;;;1.00;;
48241;SDS011;34041;51.812;4.622;2024-01-30T10:57:52;5.55;;;1.58;;
48241;SDS011;34041;51.812;4.622;2024-01-30T11:00:54;5.72;;;1.83;;
48241;SDS011;34041;51.812;4.622;2024-01-30T11:03:55;5.82;;;1.13;;
48241;SDS011;34041;51.812;4.622;2024-01-30T11:06:56;1.85;;;0.85;;
48241;SDS011;34041;51.812;4.622;2024-01-30T11:13:09;3.53;;;1.60;;
48241;SDS011;34041;51.812;4.622;2024-01-30T11:16:10;6.07;;;2.08;;
48241;SDS011;34041;51.812;4.622;2024-01-30T11:19:11;4.75;;;3.33;;
48241;SDS011;34041;51.812;4.622;2024-01-30T11:22:12;4.63;;;2.40;;
48241;SDS011;34041;51.812;4.622;2024-01-30T11:25:13;5.25;;;2.92;;
48241;SDS011;34041;51.812;4.622;2024-01-30T11:28:13;8.52;;;3.22;;
48241;SDS011;34041;51.812;4.622;2024-01-30T11:31:18;10.82;;;3.00;;
48241;SDS011;34041;51.812;4.622;2024-01-30T11:34:18;4.90;;;1.70;;
48241;SDS011;34041;51.812;4.622;2024-01-30T11:37:19;9.07;;;2.30;;
48241;SDS011;34041;51.812;4.622;2024-01-30T11:40:20;7.85;;;2.08;;
48241;SDS011;34041;51.812;4.622;2024-01-30T11:43:24;9.50;;;2.22;;
48241;SDS011;34041;51.812;4.622;2024-01-30T11:46:25;9.55;;;1.50;;
48241;SDS011;34041;51.812;4.622;2024-01-30T11:49:25;8.80;;;1.90;;
48241;SDS011;34041;51.812;4.622;2024-01-30T11:52:25;9.82;;;2.53;;
48241;SDS011;34041;51.812;4.622;2024-01-30T11:55:26;6.97;;;2.03;;
48241;SDS011;34041;51.812;4.622;2024-01-30T11:58:26;6.97;;;1.70;;
48241;SDS011;34041;51.812;4.622;2024-01-30T12:01:27;7.82;;;1.95;;
48241;SDS011;34041;51.812;4.622;2024-01-30T12:04:28;10.35;;;1.95;;
48241;SDS011;34041;51.812;4.622;2024-01-30T12:07:28;3.60;;;2.25;;
48241;SDS011;34041;51.812;4.622;2024-01-30T12:10:28;5.73;;;1.57;;
48241;SDS011;34041;51.812;4.622;2024-01-30T12:13:29;4.68;;;1.42;;
48241;SDS011;34041;51.812;4.622;2024-01-30T12:16:29;3.35;;;1.27;;
48241;SDS011;34041;51.812;4.622;2024-01-30T12:19:30;9.20;;;1.45;;
48241;SDS011;34041;51.812;4.622;2024-01-30T12:22:30;5.50;;;1.20;;
48241;SDS011;34041;51.812;4.622;2024-01-30T12:25:31;6.10;;;1.10;;
48241;SDS011;34041;51.812;4.622;2024-01-30T12:28:31;4.00;;;1.57;;
48241;SDS011;34041;51.812;4.622;2024-01-30T12:31:32;4.17;;;1.00;;
48241;SDS011;34041;51.812;4.622;2024-01-30T12:34:32;3.75;;;0.98;;
48241;SDS011;34041;51.812;4.622;2024-01-30T12:37:32;4.43;;;1.00;;
48241;SDS011;34041;51.812;4.622;2024-01-30T12:40:33;3.78;;;1.05;;
48241;SDS011;34041;51.812;4.622;2024-01-30T12:43:33;3.15;;;1.13;;
48241;SDS011;34041;51.812;4.622;2024-01-30T12:46:34;4.13;;;1.00;;
48241;SDS011;34041;51.812;4.622;2024-01-30T12:49:34;7.07;;;1.42;;
48241;SDS011;34041;51.812;4.622;2024-01-30T12:52:35;4.50;;;0.80;;
48241;SDS011;34041;51.812;4.622;2024-01-30T12:55:35;9.07;;;1.98;;
48241;SDS011;34041;51.812;4.622;2024-01-30T12:58:35;8.20;;;1.15;;
48241;SDS011;34041;51.812;4.622;2024-01-30T13:01:36;5.00;;;1.30;;
48241;SDS011;34041;51.812;4.622;2024-01-30T13:04:36;4.00;;;0.90;;
48241;SDS011;34041;51.812;4.622;2024-01-30T13:07:36;5.85;;;1.73;;
48241;SDS011;34041;51.812;4.622;2024-01-30T13:10:37;2.83;;;0.90;;
48241;SDS011;34041;51.812;4.622;2024-01-30T13:13:37;2.13;;;0.93;;
48241;SDS011;34041;51.812;4.622;2024-01-30T13:16:37;5.33;;;1.67;;
48241;SDS011;34041;51.812;4.622;2024-01-30T13:19:37;2.95;;;0.98;;
48241;SDS011;34041;51.812;4.622;2024-01-30T13:22:38;3.13;;;0.90;;
48241;SDS011;34041;51.812;4.622;2024-01-30T13:25:38;7.43;;;1.45;;
48241;SDS011;34041;51.812;4.622;2024-01-30T13:28:38;6.47;;;1.23;;
48241;SDS011;34041;51.812;4.622;2024-01-30T13:31:39;7.45;;;1.52;;
48241;SDS011;34041;51.812;4.622;2024-01-30T13:34:39;4.35;;;1.35;;
48241;SDS011;34041;51.812;4.622;2024-01-30T13:37:40;4.00;;;2.17;;
48241;SDS011;34041;51.812;4.622;2024-01-30T13:40:42;6.60;;;2.08;;
48241;SDS011;34041;51.812;4.622;2024-01-30T13:43:43;4.97;;;1.63;;
48241;SDS011;34041;51.812;4.622;2024-01-30T13:46:43;6.15;;;1.80;;
48241;SDS011;34041;51.812;4.622;2024-01-30T13:49:43;6.45;;;1.90;;
48241;SDS011;34041;51.812;4.622;2024-01-30T13:52:43;9.27;;;1.60;;
48241;SDS011;34041;51.812;4.622;2024-01-30T13:55:43;7.47;;;1.97;;
48241;SDS011;34041;51.812;4.622;2024-01-30T13:58:44;4.68;;;1.75;;
48241;SDS011;34041;51.812;4.622;2024-01-30T14:01:44;9.18;;;2.05;;
48241;SDS011;34041;51.812;4.622;2024-01-30T14:04:44;8.50;;;2.00;;
48241;SDS011;34041;51.812;4.622;2024-01-30T14:07:45;12.43;;;2.20;;
48241;SDS011;34041;51.812;4.622;2024-01-30T14:10:45;8.52;;;2.55;;
48241;SDS011;34041;51.812;4.622;2024-01-30T14:13:45;4.17;;;1.37;;
48241;SDS011;34041;51.812;4.622;2024-01-30T14:16:45;5.27;;;1.87;;
48241;SDS011;34041;51.812;4.622;2024-01-30T14:19:45;6.63;;;2.33;;
48241;SDS011;34041;51.812;4.622;2024-01-30T14:22:46;8.10;;;2.53;;
48241;SDS011;34041;51.812;4.622;2024-01-30T14:25:46;5.72;;;2.03;;
48241;SDS011;34041;51.812;4.622;2024-01-30T14:28:46;7.13;;;1.83;;
48241;SDS011;34041;51.812;4.622;2024-01-30T14:31:47;5.82;;;2.83;;
48241;SDS011;34041;51.812;4.622;2024-01-30T14:34:47;5.75;;;1.85;;
48241;SDS011;34041;51.812;4.622;2024-01-30T14:37:48;3.27;;;1.83;;
48241;SDS011;34041;51.812;4.622;2024-01-30T14:40:48;10.52;;;2.67;;
48241;SDS011;34041;51.812;4.622;2024-01-30T14:43:48;3.73;;;1.90;;
48241;SDS011;34041;51.812;4.622;2024-01-30T14:46:48;7.33;;;3.27;;
48241;SDS011;34041;51.812;4.622;2024-01-30T14:49:49;4.78;;;1.65;;
48241;SDS011;34041;51.812;4.622;2024-01-30T14:52:49;8.57;;;3.97;;
48241;SDS011;34041;51.812;4.622;2024-01-30T14:55:49;9.80;;;2.60;;
48241;SDS011;34041;51.812;4.622;2024-01-30T14:58:50;6.93;;;2.20;;
48241;SDS011;34041;51.812;4.622;2024-01-30T15:01:50;8.05;;;2.35;;
48241;SDS011;34041;51.812;4.622;2024-01-30T15:04:50;5.73;;;2.37;;
48241;SDS011;34041;51.812;4.622;2024-01-30T15:07:50;5.15;;;2.00;;
48241;SDS011;34041;51.812;4.622;2024-01-30T15:10:51;6.50;;;2.30;;
48241;SDS011;34041;51.812;4.622;2024-01-30T15:13:51;4.85;;;2.15;;
48241;SDS011;34041;51.812;4.622;2024-01-30T15:16:52;4.35;;;2.67;;
48241;SDS011;34041;51.812;4.622;2024-01-30T15:19:52;6.78;;;1.60;;
48241;SDS011;34041;51.812;4.622;2024-01-30T15:22:52;6.33;;;2.63;;
48241;SDS011;34041;51.812;4.622;2024-01-30T15:25:52;5.30;;;2.35;;
48241;SDS011;34041;51.812;4.622;2024-01-30T15:28:53;3.23;;;1.73;;
48241;SDS011;34041;51.812;4.622;2024-01-30T15:31:53;5.35;;;2.38;;
48241;SDS011;34041;51.812;4.622;2024-01-30T15:34:53;6.40;;;2.42;;
48241;SDS011;34041;51.812;4.622;2024-01-30T15:37:54;5.75;;;2.70;;
48241;SDS011;34041;51.812;4.622;2024-01-30T15:40:55;7.75;;;2.50;;
48241;SDS011;34041;51.812;4.622;2024-01-30T15:43:56;8.02;;;3.20;;
48241;SDS011;34041;51.812;4.622;2024-01-30T15:46:56;7.93;;;2.93;;
48241;SDS011;34041;51.812;4.622;2024-01-30T15:49:56;6.75;;;3.08;;
48241;SDS011;34041;51.812;4.622;2024-01-30T15:52:56;6.90;;;2.77;;
48241;SDS011;34041;51.812;4.622;2024-01-30T15:55:56;6.67;;;3.03;;
48241;SDS011;34041;51.812;4.622;2024-01-30T15:58:57;9.05;;;2.95;;
48241;SDS011;34041;51.812;4.622;2024-01-30T16:01:57;6.57;;;2.25;;
48241;SDS011;34041;51.812;4.622;2024-01-30T16:04:57;5.50;;;2.72;;
48241;SDS011;34041;51.812;4.622;2024-01-30T16:07:57;7.20;;;2.50;;
48241;SDS011;34041;51.812;4.622;2024-01-30T16:10:58;7.03;;;2.83;;
48241;SDS011;34041;51.812;4.622;2024-01-30T16:13:59;8.85;;;3.72;;
48241;SDS011;34041;51.812;4.622;2024-01-30T16:16:59;8.43;;;3.30;;
48241;SDS011;34041;51.812;4.622;2024-01-30T16:19:59;5.93;;;3.20;;
48241;SDS011;34041;51.812;4.622;2024-01-30T16:22:59;6.45;;;3.15;;
48241;SDS011;34041;51.812;4.622;2024-01-30T16:26:00;5.53;;;2.87;;
48241;SDS011;34041;51.812;4.622;2024-01-30T16:29:00;5.22;;;3.03;;
48241;SDS011;34041;51.812;4.622;2024-01-30T16:32:00;6.32;;;2.90;;
48241;SDS011;34041;51.812;4.622;2024-01-30T16:35:01;6.80;;;3.05;;
48241;SDS011;34041;51.812;4.622;2024-01-30T16:38:01;5.97;;;3.37;;
48241;SDS011;34041;51.812;4.622;2024-01-30T16:41:01;5.70;;;2.90;;
48241;SDS011;34041;51.812;4.622;2024-01-30T16:44:01;8.23;;;3.13;;
48241;SDS011;34041;51.812;4.622;2024-01-30T16:47:02;5.07;;;2.85;;
48241;SDS011;34041;51.812;4.622;2024-01-30T16:50:02;4.95;;;2.67;;
48241;SDS011;34041;51.812;4.622;2024-01-30T16:53:02;5.97;;;3.22;;
48241;SDS011;34041;51.812;4.622;2024-01-30T16:56:03;5.80;;;3.72;;
48241;SDS011;34041;51.812;4.622;2024-01-30T16:59:03;4.00;;;2.88;;
48241;SDS011;34041;51.812;4.622;2024-01-30T17:02:03;7.88;;;3.53;;
48241;SDS011;34041;51.812;4.622;2024-01-30T17:05:04;6.63;;;3.40;;
48241;SDS011;34041;51.812;4.622;2024-01-30T17:08:04;4.78;;;2.97;;
48241;SDS011;34041;51.812;4.622;2024-01-30T17:11:04;7.57;;;3.78;;
48241;SDS011;34041;51.812;4.622;2024-01-30T17:14:05;7.18;;;3.30;;
48241;SDS011;34041;51.812;4.622;2024-01-30T17:17:05;7.57;;;4.00;;
48241;SDS011;34041;51.812;4.622;2024-01-30T17:20:05;6.63;;;4.00;;
48241;SDS011;34041;51.812;4.622;2024-01-30T17:23:06;6.20;;;3.22;;
48241;SDS011;34041;51.812;4.622;2024-01-30T17:26:09;6.22;;;4.40;;
48241;SDS011;34041;51.812;4.622;2024-01-30T17:29:10;8.13;;;4.78;;
48241;SDS011;34041;51.812;4.622;2024-01-30T17:32:10;6.85;;;5.47;;
48241;SDS011;34041;51.812;4.622;2024-01-30T17:35:11;5.40;;;4.05;;
48241;SDS011;34041;51.812;4.622;2024-01-30T17:38:11;8.60;;;4.72;;
48241;SDS011;34041;51.812;4.622;2024-01-30T17:41:11;8.63;;;5.37;;
48241;SDS011;34041;51.812;4.622;2024-01-30T17:44:11;8.35;;;4.28;;
48241;SDS011;34041;51.812;4.622;2024-01-30T17:47:13;9.75;;;5.32;;
48241;SDS011;34041;51.812;4.622;2024-01-30T17:50:13;9.00;;;7.37;;
48241;SDS011;34041;51.812;4.622;2024-01-30T17:53:13;8.23;;;6.10;;
48241;SDS011;34041;51.812;4.622;2024-01-30T17:56:14;8.00;;;5.82;;
48241;SDS011;34041;51.812;4.622;2024-01-30T17:59:14;8.40;;;5.80;;
48241;SDS011;34041;51.812;4.622;2024-01-30T18:02:14;12.37;;;6.27;;
48241;SDS011;34041;51.812;4.622;2024-01-30T18:05:15;11.48;;;6.18;;